createdAt,value
2018-10-03T00:00:36.408Z,1.10
2018-10-03T00:03:04.879Z,1.27
2018-10-03T00:05:33.525Z,1.53
2018-10-03T00:08:01.980Z,1.10
2018-10-03T00:10:30.452Z,1.17
2018-10-03T00:12:58.904Z,0.90
2018-10-03T00:15:27.297Z,1.20
2018-10-03T00:17:55.744Z,1.07
2018-10-03T00:20:24.100Z,2.00
2018-10-03T00:22:52.483Z,1.27
2018-10-03T00:25:20.908Z,1.30
2018-10-03T00:27:49.383Z,1.77
2018-10-03T00:30:17.887Z,0.90
2018-10-03T00:32:46.295Z,0.93
2018-10-03T00:35:14.856Z,1.00
2018-10-03T00:37:43.353Z,1.20
2018-10-03T00:40:11.844Z,1.33
2018-10-03T00:42:40.295Z,1.20
2018-10-03T00:45:08.697Z,1.40
2018-10-03T00:47:36.957Z,1.20
2018-10-03T00:50:05.421Z,1.33
2018-10-03T00:52:33.821Z,1.33
2018-10-03T00:55:02.240Z,2.33
2018-10-03T00:57:30.509Z,0.83
2018-10-03T00:59:58.803Z,1.17
2018-10-03T01:02:27.437Z,0.90
2018-10-03T01:04:55.749Z,1.67
2018-10-03T01:07:24.103Z,1.10
2018-10-03T01:09:52.404Z,2.53
2018-10-03T01:12:20.772Z,1.27
2018-10-03T01:14:49.203Z,1.10
2018-10-03T01:17:17.590Z,2.40
2018-10-03T01:19:46.148Z,1.97
2018-10-03T01:22:14.651Z,2.10
2018-10-03T01:24:43.167Z,1.50
2018-10-03T01:27:11.619Z,2.40
2018-10-03T01:29:40.155Z,1.83
2018-10-03T01:32:08.672Z,1.60
2018-10-03T01:34:37.168Z,1.40
2018-10-03T01:37:05.711Z,1.10
2018-10-03T01:39:34.231Z,1.07
2018-10-03T01:42:02.775Z,1.13
2018-10-03T01:44:31.501Z,1.60
2018-10-03T01:47:00.055Z,1.07
2018-10-03T01:49:28.535Z,1.33
2018-10-03T01:51:57.016Z,2.03
2018-10-03T01:54:25.616Z,1.10
2018-10-03T01:56:54.799Z,1.47
2018-10-03T01:59:23.335Z,2.10
2018-10-03T02:01:51.869Z,1.87
2018-10-03T02:04:20.387Z,1.00
2018-10-03T02:06:48.962Z,1.20
2018-10-03T02:09:17.486Z,1.30
2018-10-03T02:11:46.073Z,1.77
2018-10-03T02:14:14.556Z,1.33
2018-10-03T02:16:43.079Z,1.17
2018-10-03T02:19:11.625Z,1.27
2018-10-03T02:21:40.254Z,1.10
2018-10-03T02:24:08.784Z,1.10
2018-10-03T02:26:37.398Z,1.90
2018-10-03T02:29:06.023Z,1.23
2018-10-03T02:31:34.543Z,3.20
2018-10-03T02:34:03.007Z,1.83
2018-10-03T02:36:31.565Z,1.57
2018-10-03T02:39:00.179Z,0.90
2018-10-03T02:41:28.635Z,0.87
2018-10-03T02:43:57.119Z,2.77
2018-10-03T02:46:25.747Z,0.80
2018-10-03T02:48:54.240Z,2.20
2018-10-03T02:51:22.771Z,3.63
2018-10-03T02:53:51.251Z,0.97
2018-10-03T02:56:19.810Z,0.90
2018-10-03T02:58:48.407Z,1.00
2018-10-03T03:01:17.000Z,1.13
2018-10-03T03:03:45.555Z,0.90
2018-10-03T03:06:14.091Z,1.10
2018-10-03T03:08:42.829Z,1.00
2018-10-03T03:11:11.379Z,1.27
2018-10-03T03:13:40.220Z,1.50
2018-10-03T03:16:08.769Z,2.73
2018-10-03T03:18:37.184Z,2.93
2018-10-03T03:21:05.593Z,1.20
2018-10-03T03:23:34.053Z,1.87
2018-10-03T03:26:02.413Z,1.00
2018-10-03T03:28:30.797Z,0.80
2018-10-03T03:30:59.219Z,2.50
2018-10-03T03:33:27.640Z,1.10
2018-10-03T03:35:56.048Z,1.47
2018-10-03T03:38:24.462Z,1.27
2018-10-03T03:40:52.848Z,1.27
2018-10-03T03:43:21.217Z,1.43
2018-10-03T03:45:49.657Z,1.17
2018-10-03T03:48:18.308Z,1.10
2018-10-03T03:50:46.735Z,1.40
2018-10-03T03:53:15.180Z,0.90
2018-10-03T03:55:43.614Z,1.00
2018-10-03T03:58:11.904Z,0.97
2018-10-03T04:00:40.347Z,0.83
2018-10-03T04:03:08.684Z,0.80
2018-10-03T04:05:37.064Z,1.43
2018-10-03T04:08:05.386Z,0.90
2018-10-03T04:10:33.709Z,1.23
2018-10-03T04:13:02.008Z,0.90
2018-10-03T04:15:30.437Z,0.80
2018-10-03T04:17:58.847Z,1.20
2018-10-03T04:20:27.350Z,1.00
2018-10-03T04:22:55.730Z,3.30
2018-10-03T04:25:24.272Z,1.27
2018-10-03T04:27:52.707Z,2.03
2018-10-03T04:30:21.197Z,1.63
2018-10-03T04:32:49.651Z,0.90
2018-10-03T04:35:18.080Z,1.30
2018-10-03T04:37:46.395Z,1.60
2018-10-03T04:40:14.946Z,0.90
2018-10-03T04:42:43.352Z,1.40
2018-10-03T04:45:12.093Z,1.20
2018-10-03T04:47:40.472Z,4.37
2018-10-03T04:50:09.013Z,1.03
2018-10-03T04:52:37.430Z,3.13
2018-10-03T04:55:05.929Z,1.47
2018-10-03T04:57:34.327Z,1.00
2018-10-03T05:00:02.653Z,1.50
2018-10-03T05:02:31.112Z,1.27
2018-10-03T05:04:59.497Z,1.53
2018-10-03T05:07:27.881Z,1.30
2018-10-03T05:09:56.259Z,1.57
2018-10-03T05:12:24.583Z,1.30
2018-10-03T05:14:52.965Z,1.40
2018-10-03T05:17:21.256Z,1.10
2018-10-03T05:19:49.660Z,1.53
2018-10-03T05:22:17.987Z,2.00
2018-10-03T05:24:46.445Z,1.87
2018-10-03T05:27:14.848Z,1.17
2018-10-03T05:29:43.308Z,1.90
2018-10-03T05:32:12.109Z,1.40
2018-10-03T05:34:40.427Z,1.03
2018-10-03T05:37:08.963Z,2.50
2018-10-03T05:39:37.328Z,1.63
2018-10-03T05:42:05.883Z,2.43
2018-10-03T05:44:34.739Z,1.33
2018-10-03T05:47:03.398Z,1.73
2018-10-03T05:49:31.726Z,1.40
2018-10-03T05:52:00.116Z,1.00
2018-10-03T05:54:28.640Z,2.63
2018-10-03T05:56:58.203Z,2.60
2018-10-03T05:59:26.547Z,2.70
2018-10-03T06:01:54.952Z,2.90
2018-10-03T06:04:23.452Z,3.17
2018-10-03T06:06:52.431Z,3.57
2018-10-03T06:09:21.212Z,4.67
2018-10-03T06:11:49.888Z,4.97
2018-10-03T06:14:27.067Z,3.93
2018-10-03T06:16:56.248Z,4.30
2018-10-03T06:19:24.660Z,3.73
2018-10-03T06:21:53.360Z,4.40
2018-10-03T06:24:22.039Z,3.37
2018-10-03T06:26:50.372Z,3.20
2018-10-03T06:29:18.788Z,4.00
2018-10-03T06:31:47.284Z,1.53
2018-10-03T06:34:15.943Z,1.53
2018-10-03T06:36:44.300Z,1.40
2018-10-03T06:39:12.886Z,1.50
2018-10-03T06:41:41.439Z,1.30
2018-10-03T06:44:10.427Z,4.37
2018-10-03T06:46:39.117Z,1.30
2018-10-03T06:49:07.528Z,1.80
2018-10-03T06:51:35.831Z,1.67
2018-10-03T06:54:04.664Z,3.40
2018-10-03T06:56:33.252Z,3.10
2018-10-03T06:59:01.720Z,2.03
2018-10-03T07:01:30.046Z,1.40
2018-10-03T07:03:58.674Z,2.20
2018-10-03T07:06:27.163Z,1.50
2018-10-03T07:08:56.098Z,1.50
2018-10-03T07:11:24.628Z,3.63
2018-10-03T07:13:53.356Z,1.83
2018-10-03T07:16:22.147Z,2.43
2018-10-03T07:18:50.459Z,1.40
2018-10-03T07:21:18.815Z,4.07
2018-10-03T07:23:47.488Z,4.03
2018-10-03T07:26:15.828Z,2.97
2018-10-03T07:28:44.199Z,2.43
2018-10-03T07:31:12.887Z,1.33
2018-10-03T07:33:42.172Z,1.37
2018-10-03T07:36:10.562Z,1.90
2018-10-03T07:38:38.983Z,1.30
2018-10-03T07:41:07.524Z,1.27
2018-10-03T07:43:36.144Z,1.33
2018-10-03T07:46:04.792Z,2.80
2018-10-03T07:48:33.076Z,3.70
2018-10-03T07:51:01.421Z,3.93
2018-10-03T07:53:30.140Z,5.93
2018-10-03T07:55:58.708Z,4.50
2018-10-03T07:58:27.383Z,4.00
2018-10-03T08:00:55.725Z,4.73
2018-10-03T08:03:24.186Z,3.87
2018-10-03T08:05:52.831Z,5.33
2018-10-03T08:08:21.568Z,5.07
2018-10-03T08:10:49.936Z,3.93
2018-10-03T08:13:18.364Z,3.23
2018-10-03T08:15:46.799Z,2.70
2018-10-03T08:18:15.461Z,2.87
2018-10-03T08:20:44.131Z,3.17
2018-10-03T08:23:12.660Z,2.53
2018-10-03T08:25:41.426Z,2.50
2018-10-03T08:28:10.097Z,3.00
2018-10-03T08:30:38.436Z,2.80
2018-10-03T08:33:06.927Z,4.17
2018-10-03T08:35:35.685Z,2.73
2018-10-03T08:38:04.351Z,2.43
2018-10-03T08:40:32.908Z,2.97
2018-10-03T08:43:01.728Z,2.50
2018-10-03T08:45:30.210Z,2.17
2018-10-03T08:47:58.656Z,3.40
2018-10-03T08:50:27.149Z,4.03
2018-10-03T08:52:55.569Z,3.03
2018-10-03T08:55:24.132Z,3.57
2018-10-03T08:57:52.905Z,2.37
2018-10-03T09:00:22.021Z,3.37
2018-10-03T09:02:50.513Z,3.80
2018-10-03T09:05:19.280Z,2.13
2018-10-03T09:07:48.197Z,2.33
2018-10-03T09:10:17.082Z,2.30
2018-10-03T09:12:45.580Z,1.93
2018-10-03T09:15:14.360Z,3.67
2018-10-03T09:17:42.815Z,2.50
2018-10-03T09:20:11.540Z,4.00
2018-10-03T09:22:39.900Z,2.60
2018-10-03T09:25:08.720Z,3.67
2018-10-03T09:27:37.424Z,3.77
2018-10-03T09:30:06.201Z,3.87
2018-10-03T09:32:34.651Z,3.43
2018-10-03T09:35:03.396Z,2.53
2018-10-03T09:37:31.748Z,2.70
2018-10-03T09:40:00.203Z,3.93
2018-10-03T09:42:28.913Z,3.33
2018-10-03T09:44:57.369Z,1.87
2018-10-03T09:47:25.859Z,2.40
2018-10-03T09:49:54.416Z,3.67
2018-10-03T09:52:23.244Z,4.40
2018-10-03T09:54:51.948Z,3.00
2018-10-03T09:57:20.627Z,2.50
2018-10-03T09:59:50.248Z,4.90
2018-10-03T10:02:18.662Z,2.62
2018-10-03T10:04:47.297Z,3.07
2018-10-03T10:07:15.690Z,4.37
2018-10-03T10:09:44.432Z,3.33
2018-10-03T10:12:12.975Z,3.30
2018-10-03T10:15:13.129Z,2.27
2018-10-03T10:17:41.711Z,2.98
2018-10-03T10:20:10.143Z,2.98
2018-10-03T10:22:38.621Z,5.45
2018-10-03T10:25:07.059Z,3.25
2018-10-03T10:27:35.748Z,2.25
2018-10-03T10:30:04.440Z,5.60
2018-10-03T10:32:32.924Z,3.20
2018-10-03T10:35:01.327Z,3.83
2018-10-03T10:37:30.112Z,3.77
2018-10-03T10:39:59.314Z,2.92
2018-10-03T10:42:28.248Z,2.83
2018-10-03T10:44:57.181Z,4.22
2018-10-03T10:47:26.280Z,3.02
2018-10-03T10:49:54.896Z,4.28
2018-10-03T10:52:23.959Z,2.30
2018-10-03T10:54:52.647Z,2.95
2018-10-03T10:57:21.143Z,2.05
2018-10-03T10:59:49.797Z,2.95
2018-10-03T11:02:18.871Z,2.30
2018-10-03T11:04:48.000Z,1.85
2018-10-03T11:07:19.477Z,1.60
2018-10-03T11:09:48.532Z,2.95
2018-10-03T11:12:17.695Z,2.05
2018-10-03T11:15:24.195Z,1.42
2018-10-03T11:17:53.460Z,1.62
2018-10-03T11:20:22.697Z,2.15
2018-10-03T11:22:51.388Z,1.25
2018-10-03T11:25:20.145Z,2.02
2018-10-03T11:27:48.560Z,1.07
2018-10-03T11:30:17.200Z,1.20
2018-10-03T11:32:45.535Z,1.37
2018-10-03T11:35:13.993Z,1.45
2018-10-03T11:37:42.408Z,1.20
2018-10-03T11:40:10.695Z,1.75
2018-10-03T11:42:39.076Z,0.80
2018-10-03T11:45:07.565Z,1.00
2018-10-03T11:47:35.879Z,1.07
2018-10-03T11:50:04.321Z,0.90
2018-10-03T11:52:32.694Z,0.60
2018-10-03T11:55:01.209Z,0.80
2018-10-03T11:57:29.699Z,1.25
2018-10-03T11:59:58.448Z,1.20
2018-10-03T12:02:26.921Z,1.20
2018-10-03T12:04:55.328Z,1.00
2018-10-03T12:07:23.659Z,1.20
2018-10-03T12:09:52.092Z,0.98
2018-10-03T12:12:20.564Z,1.15
2018-10-03T12:15:25.672Z,1.02
2018-10-03T12:17:54.396Z,0.82
2018-10-03T12:20:22.800Z,0.80
2018-10-03T12:22:51.287Z,1.07
2018-10-03T12:25:20.259Z,1.15
2018-10-03T12:27:48.589Z,2.87
2018-10-03T12:30:17.816Z,1.00
2018-10-03T12:32:46.620Z,0.70
2018-10-03T12:35:19.667Z,0.80
2018-10-03T12:37:48.139Z,0.98
2018-10-03T12:40:17.088Z,0.60
2018-10-03T12:42:45.871Z,0.95
2018-10-03T12:45:14.973Z,0.90
2018-10-03T12:47:43.356Z,0.78
2018-10-03T12:50:11.839Z,0.90
2018-10-03T12:52:40.417Z,0.88
2018-10-03T12:55:08.735Z,0.80
2018-10-03T12:57:37.423Z,1.30
2018-10-03T13:00:05.928Z,1.42
2018-10-03T13:02:34.274Z,1.10
2018-10-03T13:05:02.600Z,1.20
2018-10-03T13:07:31.284Z,0.88
2018-10-03T13:09:59.744Z,2.40
2018-10-03T13:12:28.279Z,0.93
2018-10-03T13:15:41.126Z,0.85
2018-10-03T13:18:09.608Z,1.55
2018-10-03T13:20:38.012Z,1.02
2018-10-03T13:23:06.372Z,1.05
2018-10-03T13:25:34.736Z,0.98
2018-10-03T13:28:03.192Z,0.90
2018-10-03T13:30:31.714Z,0.80
2018-10-03T13:33:00.409Z,0.98
2018-10-03T13:35:28.763Z,0.80
2018-10-03T13:37:57.181Z,1.42
2018-10-03T13:40:26.057Z,2.65
2018-10-03T13:42:54.755Z,0.95
2018-10-03T13:45:23.144Z,1.02
2018-10-03T13:47:51.644Z,2.10
2018-10-03T13:50:20.025Z,1.10
2018-10-03T13:52:48.644Z,3.33
2018-10-03T13:55:17.737Z,2.25
2018-10-03T13:57:46.271Z,2.17
2018-10-03T14:00:15.196Z,1.72
2018-10-03T14:02:43.595Z,1.02
2018-10-03T14:05:11.990Z,0.88
2018-10-03T14:07:40.664Z,1.77
2018-10-03T14:10:09.052Z,1.32
2018-10-03T14:12:37.679Z,0.68
2018-10-03T14:15:55.233Z,0.70
2018-10-03T14:18:24.117Z,0.70
2018-10-03T14:20:52.797Z,0.90
2018-10-03T14:23:21.113Z,1.67
2018-10-03T14:25:49.888Z,1.27
2018-10-03T14:28:18.456Z,1.70
2018-10-03T14:30:47.446Z,0.80
2018-10-03T14:33:16.100Z,0.75
2018-10-03T14:35:44.447Z,2.45
2018-10-03T14:38:12.962Z,1.80
2018-10-03T14:40:41.324Z,3.30
2018-10-03T14:43:09.963Z,2.20
2018-10-03T14:45:38.372Z,2.30
2018-10-03T14:48:07.367Z,2.00
2018-10-03T14:50:35.908Z,1.50
2018-10-03T14:53:04.373Z,1.05
2018-10-03T14:55:33.019Z,1.72
2018-10-03T14:58:01.818Z,1.85
2018-10-03T15:00:30.472Z,1.05
2018-10-03T15:02:58.820Z,0.72
2018-10-03T15:05:27.264Z,0.80
2018-10-03T15:07:55.775Z,0.85
2018-10-03T15:10:24.919Z,0.78
2018-10-03T15:12:53.887Z,0.90
2018-10-03T15:18:43.910Z,1.07
2018-10-03T15:21:12.719Z,0.70
2018-10-03T15:23:42.134Z,0.72
2018-10-03T15:26:10.900Z,0.68
2018-10-03T15:28:39.931Z,0.88
2018-10-03T15:31:08.544Z,1.47
2018-10-03T15:33:37.386Z,0.88
2018-10-03T15:36:06.213Z,1.05
2018-10-03T15:38:34.495Z,0.90
2018-10-03T15:41:03.040Z,0.80
2018-10-03T15:43:31.721Z,0.72
2018-10-03T15:46:00.522Z,0.90
2018-10-03T15:48:29.148Z,2.20
2018-10-03T15:50:57.531Z,0.70
2018-10-03T15:53:25.904Z,0.80
2018-10-03T15:55:54.664Z,1.10
2018-10-03T15:58:23.556Z,0.85
2018-10-03T16:00:52.000Z,1.00
2018-10-03T16:03:20.317Z,3.20
2018-10-03T16:05:48.675Z,0.88
2018-10-03T16:08:17.032Z,1.67
2018-10-03T16:10:45.490Z,1.00
2018-10-03T16:13:13.899Z,1.00
2018-10-03T16:16:25.175Z,1.00
2018-10-03T16:18:53.567Z,1.15
2018-10-03T16:21:21.892Z,1.55
2018-10-03T16:23:50.296Z,0.93
2018-10-03T16:26:18.760Z,1.65
2018-10-03T16:28:47.093Z,0.70
2018-10-03T16:31:15.544Z,1.00
2018-10-03T16:33:44.419Z,0.90
2018-10-03T16:36:12.739Z,2.12
2018-10-03T16:38:41.349Z,1.10
2018-10-03T16:41:09.772Z,1.60
2018-10-03T16:43:38.141Z,1.15
2018-10-03T16:46:07.217Z,1.10
2018-10-03T16:48:35.668Z,0.90
2018-10-03T16:51:04.140Z,0.93
2018-10-03T16:53:32.514Z,1.00
2018-10-03T16:56:00.908Z,1.03
2018-10-03T16:58:29.284Z,1.13
2018-10-03T17:00:57.705Z,2.10
2018-10-03T17:03:25.951Z,0.90
2018-10-03T17:05:54.352Z,2.30
2018-10-03T17:08:22.744Z,0.80
2018-10-03T17:10:51.008Z,1.03
2018-10-03T17:13:19.428Z,1.10
2018-10-03T17:16:34.075Z,2.37
2018-10-03T17:19:02.405Z,1.20
2018-10-03T17:21:30.841Z,1.47
2018-10-03T17:23:59.277Z,1.47
2018-10-03T17:26:28.025Z,0.90
2018-10-03T17:28:57.037Z,0.80
2018-10-03T17:31:25.900Z,1.83
2018-10-03T17:33:55.003Z,1.73
2018-10-03T17:36:24.241Z,1.20
2018-10-03T17:38:52.955Z,1.30
2018-10-03T17:41:21.724Z,2.10
2018-10-03T17:43:50.398Z,1.37
2018-10-03T17:46:18.914Z,1.00
2018-10-03T17:48:48.136Z,2.40
2018-10-03T17:51:16.635Z,1.37
2018-10-03T17:53:45.944Z,1.10
2018-10-03T17:56:14.439Z,3.00
2018-10-03T17:58:43.594Z,1.17
2018-10-03T18:01:11.967Z,1.30
2018-10-03T18:03:40.299Z,1.10
2018-10-03T18:06:08.959Z,1.30
2018-10-03T18:08:37.423Z,1.27
2018-10-03T18:11:12.971Z,3.20
2018-10-03T18:13:41.777Z,1.20
2018-10-03T18:16:43.162Z,0.90
2018-10-03T18:19:11.753Z,2.00
2018-10-03T18:21:40.246Z,2.47
2018-10-03T18:24:08.966Z,1.23
2018-10-03T18:26:38.625Z,1.50
2018-10-03T18:29:07.753Z,1.50
2018-10-03T18:31:36.911Z,1.40
2018-10-03T18:34:06.071Z,1.13
2018-10-03T18:36:35.304Z,1.63
2018-10-03T18:39:06.437Z,1.37
2018-10-03T18:41:35.723Z,2.43
2018-10-03T18:44:05.352Z,1.40
2018-10-03T18:46:34.824Z,1.53
2018-10-03T18:49:05.035Z,3.00
2018-10-03T18:51:34.407Z,1.40
2018-10-03T18:54:04.047Z,2.67
2018-10-03T18:56:33.287Z,1.20
2018-10-03T18:59:02.462Z,1.30
2018-10-03T19:01:31.774Z,1.20
2018-10-03T19:04:01.078Z,1.40
2018-10-03T19:06:30.244Z,1.20
2018-10-03T19:08:59.515Z,1.40
2018-10-03T19:11:28.749Z,1.40
2018-10-03T19:13:57.922Z,1.13
2018-10-03T19:16:46.851Z,1.30
2018-10-03T19:19:16.094Z,2.87
2018-10-03T19:21:45.270Z,1.50
2018-10-03T19:24:14.440Z,2.00
2018-10-03T19:26:43.668Z,2.70
2018-10-03T19:29:12.692Z,1.83
2018-10-03T19:31:41.789Z,2.50
2018-10-03T19:34:10.833Z,1.93
2018-10-03T19:36:39.995Z,1.47
2018-10-03T19:39:09.407Z,1.50
2018-10-03T19:41:38.558Z,1.60
2018-10-03T19:44:07.888Z,1.40
2018-10-03T19:46:36.856Z,1.50
2018-10-03T19:49:06.108Z,1.40
2018-10-03T19:51:35.706Z,2.37
2018-10-03T19:54:04.793Z,1.47
2018-10-03T19:56:33.892Z,1.57
2018-10-03T19:59:03.077Z,1.50
2018-10-03T20:01:32.248Z,1.83
2018-10-03T20:04:01.469Z,1.83
2018-10-03T20:06:30.593Z,1.63
2018-10-03T20:09:00.732Z,1.73
2018-10-03T20:11:29.916Z,1.60
2018-10-03T20:13:59.389Z,1.73
2018-10-03T20:16:48.852Z,2.63
2018-10-03T20:19:17.900Z,2.63
2018-10-03T20:21:46.835Z,1.70
2018-10-03T20:24:15.848Z,1.83
2018-10-03T20:30:17.416Z,1.47
2018-10-03T20:32:46.135Z,1.97
2018-10-03T20:35:14.600Z,2.00
2018-10-03T20:37:43.244Z,1.40
2018-10-03T20:40:11.870Z,1.93
2018-10-03T20:42:40.340Z,1.37
2018-10-03T20:45:08.842Z,1.60
2018-10-03T20:47:37.137Z,1.50
2018-10-03T20:50:05.659Z,1.53
2018-10-03T20:52:34.072Z,2.63
2018-10-03T20:55:02.472Z,1.43
2018-10-03T20:57:31.033Z,1.20
2018-10-03T20:59:59.500Z,1.50
2018-10-03T21:02:27.949Z,1.30
2018-10-03T21:04:56.564Z,1.30
2018-10-03T21:07:25.006Z,1.60
2018-10-03T21:09:53.460Z,1.73
2018-10-03T21:12:22.040Z,1.33
2018-10-03T21:15:34.710Z,1.50
2018-10-03T21:18:03.112Z,2.40
2018-10-03T21:20:31.497Z,1.50
2018-10-03T21:22:59.876Z,1.40
2018-10-03T21:25:28.208Z,1.50
2018-10-03T21:27:56.543Z,1.30
2018-10-03T21:30:25.056Z,3.97
2018-10-03T21:32:53.395Z,2.37
2018-10-03T21:35:21.792Z,2.03
2018-10-03T21:37:50.315Z,1.80
2018-10-03T21:40:18.689Z,2.37
2018-10-03T21:42:47.108Z,2.00
2018-10-03T21:45:16.230Z,2.43
2018-10-03T21:47:44.713Z,3.33
2018-10-03T21:50:13.705Z,2.47
2018-10-03T21:52:42.099Z,2.40
2018-10-03T21:55:10.533Z,3.27
2018-10-03T21:57:38.875Z,3.40
2018-10-03T22:00:08.164Z,2.60
2018-10-03T22:02:36.639Z,2.40
2018-10-03T22:05:07.645Z,3.90
2018-10-03T22:07:36.200Z,3.13
2018-10-03T22:10:04.777Z,4.00
2018-10-03T22:12:33.179Z,3.13
2018-10-03T22:15:01.616Z,3.37
2018-10-03T22:17:34.480Z,2.43
2018-10-03T22:20:02.917Z,3.63
2018-10-03T22:22:31.410Z,3.47
2018-10-03T22:24:59.952Z,4.63
2018-10-03T22:27:28.464Z,4.03
2018-10-03T22:29:57.050Z,4.87
2018-10-03T22:32:25.500Z,4.50
2018-10-03T22:34:54.229Z,3.53
2018-10-03T22:37:22.703Z,5.10
2018-10-03T22:39:51.196Z,4.17
2018-10-03T22:42:19.692Z,7.60
2018-10-03T22:44:48.049Z,4.77
2018-10-03T22:47:16.412Z,3.47
2018-10-03T22:49:44.867Z,3.87
2018-10-03T22:52:13.325Z,4.20
2018-10-03T22:54:41.764Z,6.30
2018-10-03T22:57:10.303Z,4.67
2018-10-03T22:59:38.694Z,5.20
2018-10-03T23:02:07.701Z,4.60
2018-10-03T23:04:36.104Z,3.43
2018-10-03T23:07:04.431Z,5.97
2018-10-03T23:09:32.868Z,3.63
2018-10-03T23:12:01.175Z,4.27
2018-10-03T23:14:29.582Z,4.00
2018-10-03T23:16:58.452Z,3.90
2018-10-03T23:19:26.799Z,2.87
2018-10-03T23:21:55.167Z,3.93
2018-10-03T23:24:23.604Z,3.33
2018-10-03T23:26:52.032Z,3.27
2018-10-03T23:29:20.442Z,2.70
2018-10-03T23:31:48.880Z,2.43
2018-10-03T23:34:17.332Z,2.97
2018-10-03T23:36:45.716Z,2.30
2018-10-03T23:39:14.129Z,3.93
2018-10-03T23:41:42.504Z,2.47
2018-10-03T23:44:11.329Z,2.37
2018-10-03T23:46:39.712Z,2.87
2018-10-03T23:49:08.055Z,1.87
2018-10-03T23:51:36.503Z,1.37
2018-10-03T23:54:04.876Z,1.60
2018-10-03T23:56:33.223Z,1.73
2018-10-03T23:59:01.682Z,2.63
